createdAt,value
2023-05-06T00:00:58.926Z,1010.59
2023-05-06T00:01:58.911Z,1010.60
2023-05-06T00:02:59.017Z,1010.51
2023-05-06T00:03:59.000Z,1010.47
2023-05-06T00:04:58.847Z,1010.51
2023-05-06T00:05:58.873Z,1010.39
2023-05-06T00:06:58.803Z,1010.45
2023-05-06T00:07:58.808Z,1010.37
2023-05-06T00:08:58.795Z,1010.32
2023-05-06T00:09:58.790Z,1010.21
2023-05-06T00:10:58.809Z,1010.24
2023-05-06T00:11:58.757Z,1010.27
2023-05-06T00:12:58.792Z,1010.29
2023-05-06T00:13:58.720Z,1010.29
2023-05-06T00:14:58.724Z,1010.25
2023-05-06T00:15:58.772Z,1010.25
2023-05-06T00:16:58.729Z,1010.27
2023-05-06T00:17:58.733Z,1010.29
2023-05-06T00:18:58.676Z,1010.30
2023-05-06T00:19:58.738Z,1010.33
2023-05-06T00:20:58.675Z,1010.26
2023-05-06T00:21:58.724Z,1010.28
2023-05-06T00:22:58.618Z,1010.24
2023-05-06T00:23:58.603Z,1010.22
2023-05-06T00:24:58.657Z,1010.20
2023-05-06T00:25:58.593Z,1010.19
2023-05-06T00:26:58.603Z,1010.16
2023-05-06T00:27:58.575Z,1010.18
2023-05-06T00:28:58.566Z,1010.18
2023-05-06T00:29:58.583Z,1010.16
2023-05-06T00:30:58.543Z,1010.12
2023-05-06T00:31:58.562Z,1010.15
2023-05-06T00:32:58.554Z,1010.13
2023-05-06T00:33:58.544Z,1010.14
2023-05-06T00:34:58.511Z,1010.11
2023-05-06T00:35:58.473Z,1010.12
2023-05-06T00:36:58.472Z,1010.09
2023-05-06T00:37:58.474Z,1010.14
2023-05-06T00:38:58.478Z,1010.06
2023-05-06T00:39:58.434Z,1010.07
2023-05-06T00:40:58.418Z,1010.09
2023-05-06T00:41:58.405Z,1010.07
2023-05-06T00:42:58.382Z,1010.05
2023-05-06T00:43:58.413Z,1010.03
2023-05-06T00:44:58.360Z,1010.04
2023-05-06T00:45:58.404Z,1010.04
2023-05-06T00:46:58.367Z,1010.07
2023-05-06T00:47:58.406Z,1010.03
2023-05-06T00:48:58.396Z,1010.09
2023-05-06T00:49:58.327Z,1010.09
2023-05-06T00:50:58.292Z,1010.12
2023-05-06T00:51:58.309Z,1010.10
2023-05-06T00:52:58.315Z,1010.08
2023-05-06T00:53:58.279Z,1010.14
2023-05-06T00:54:58.252Z,1010.12
2023-05-06T00:55:58.263Z,1010.15
2023-05-06T00:56:58.233Z,1010.08
2023-05-06T00:57:58.269Z,1010.05
2023-05-06T00:58:58.211Z,1010.12
2023-05-06T00:59:58.214Z,1010.08
2023-05-06T01:00:58.208Z,1010.06
2023-05-06T01:01:58.212Z,1010.08
2023-05-06T01:02:58.253Z,1010.10
2023-05-06T01:03:58.221Z,1010.01
2023-05-06T01:04:58.170Z,1010.04
2023-05-06T01:05:58.148Z,1010.06
2023-05-06T01:06:58.140Z,1010.05
2023-05-06T01:07:58.122Z,1010.06
2023-05-06T01:08:58.090Z,1010.00
2023-05-06T01:09:58.094Z,1010.01
2023-05-06T01:10:58.085Z,1009.93
2023-05-06T01:11:58.115Z,1009.93
2023-05-06T01:12:58.099Z,1009.91
2023-05-06T01:13:58.034Z,1009.84
2023-05-06T01:14:58.025Z,1009.84
2023-05-06T01:15:58.066Z,1009.82
2023-05-06T01:16:58.110Z,1009.84
2023-05-06T01:17:58.053Z,1009.79
2023-05-06T01:18:57.994Z,1009.83
2023-05-06T01:19:57.972Z,1009.77
2023-05-06T01:20:58.004Z,1009.81
2023-05-06T01:21:57.960Z,1009.80
2023-05-06T01:22:57.954Z,1009.75
2023-05-06T01:23:58.364Z,1009.75
2023-05-06T01:24:57.919Z,1009.74
2023-05-06T01:25:57.934Z,1009.78
2023-05-06T01:26:57.919Z,1009.74
2023-05-06T01:27:57.898Z,1009.74
2023-05-06T01:28:57.875Z,1009.77
2023-05-06T01:29:57.918Z,1009.76
2023-05-06T01:30:57.956Z,1009.76
2023-05-06T01:31:57.845Z,1009.69
2023-05-06T01:32:57.857Z,1009.75
2023-05-06T01:33:57.833Z,1009.73
2023-05-06T01:34:57.823Z,1009.70
2023-05-06T01:35:57.796Z,1009.68
2023-05-06T01:36:57.781Z,1009.64
2023-05-06T01:37:57.782Z,1009.66
2023-05-06T01:38:57.765Z,1009.64
2023-05-06T01:39:57.792Z,1009.63
2023-05-06T01:40:57.742Z,1009.65
2023-05-06T01:41:57.754Z,1009.65
2023-05-06T01:42:57.713Z,1009.67
2023-05-06T01:43:57.736Z,1009.59
2023-05-06T01:44:57.710Z,1009.56
2023-05-06T01:45:57.698Z,1009.54
2023-05-06T01:46:57.668Z,1009.50
2023-05-06T01:47:57.716Z,1009.50
2023-05-06T01:48:57.694Z,1009.51
2023-05-06T01:49:57.635Z,1009.45
2023-05-06T01:50:57.634Z,1009.53
2023-05-06T01:51:57.613Z,1009.50
2023-05-06T01:52:57.596Z,1009.49
2023-05-06T01:53:57.653Z,1009.49
2023-05-06T01:54:57.595Z,1009.52
2023-05-06T01:55:57.560Z,1009.52
2023-05-06T01:56:57.538Z,1009.52
2023-05-06T01:57:57.591Z,1009.51
2023-05-06T01:58:59.265Z,1009.50
2023-05-06T01:59:57.525Z,1009.49
2023-05-06T02:00:57.509Z,1009.44
2023-05-06T02:01:57.550Z,1009.50
2023-05-06T02:02:57.653Z,1009.48
2023-05-06T02:03:57.574Z,1009.51
2023-05-06T02:04:57.462Z,1009.47
2023-05-06T02:05:57.448Z,1009.46
2023-05-06T02:06:57.435Z,1009.47
2023-05-06T02:07:57.477Z,1009.43
2023-05-06T02:08:57.416Z,1009.40
2023-05-06T02:09:57.464Z,1009.40
2023-05-06T02:10:57.388Z,1009.41
2023-05-06T02:11:57.420Z,1009.38
2023-05-06T02:12:57.460Z,1009.41
2023-05-06T02:13:57.354Z,1009.41
2023-05-06T02:14:57.339Z,1009.36
2023-05-06T02:15:57.416Z,1009.44
2023-05-06T02:16:57.343Z,1009.44
2023-05-06T02:17:57.350Z,1009.45
2023-05-06T02:18:57.300Z,1009.47
2023-05-06T02:19:57.283Z,1009.48
2023-05-06T02:20:57.285Z,1009.48
2023-05-06T02:21:57.294Z,1009.53
2023-05-06T02:22:57.247Z,1009.55
2023-05-06T02:23:57.229Z,1009.58
2023-05-06T02:24:57.227Z,1009.55
2023-05-06T02:25:57.253Z,1009.54
2023-05-06T02:26:57.226Z,1009.53
2023-05-06T02:27:57.187Z,1009.50
2023-05-06T02:28:57.186Z,1009.47
2023-05-06T02:29:57.166Z,1009.44
2023-05-06T02:30:57.186Z,1009.35
2023-05-06T02:31:57.258Z,1009.40
2023-05-06T02:32:57.193Z,1009.35
2023-05-06T02:33:57.114Z,1009.30
2023-05-06T02:34:57.117Z,1009.28
2023-05-06T02:35:57.132Z,1009.26
2023-05-06T02:36:57.098Z,1009.18
2023-05-06T02:37:57.089Z,1009.29
2023-05-06T02:38:57.075Z,1009.33
2023-05-06T02:39:57.034Z,1009.32
2023-05-06T02:40:57.081Z,1009.37
2023-05-06T02:41:57.027Z,1009.40
2023-05-06T02:42:57.043Z,1009.42
2023-05-06T02:43:56.997Z,1009.43
2023-05-06T02:44:57.009Z,1009.35
2023-05-06T02:45:57.091Z,1009.30
2023-05-06T02:46:56.962Z,1009.30
2023-05-06T02:47:56.959Z,1009.29
2023-05-06T02:48:56.953Z,1009.29
2023-05-06T02:49:56.966Z,1009.29
2023-05-06T02:50:56.912Z,1009.16
2023-05-06T02:51:56.897Z,1009.18
2023-05-06T02:52:56.889Z,1009.21
2023-05-06T02:53:56.869Z,1009.22
2023-05-06T02:54:56.906Z,1009.24
2023-05-06T02:55:56.858Z,1009.27
2023-05-06T02:56:56.844Z,1009.23
2023-05-06T02:57:56.840Z,1009.27
2023-05-06T02:58:56.864Z,1009.21
2023-05-06T02:59:56.856Z,1009.26
2023-05-06T03:00:56.835Z,1009.32
2023-05-06T03:01:56.780Z,1009.31
2023-05-06T03:02:56.776Z,1009.26
2023-05-06T03:03:56.837Z,1009.24
2023-05-06T03:04:56.741Z,1009.23
2023-05-06T03:05:56.734Z,1009.26
2023-05-06T03:06:56.738Z,1009.22
2023-05-06T03:07:56.741Z,1009.24
2023-05-06T03:08:56.733Z,1009.26
2023-05-06T03:09:56.699Z,1009.34
2023-05-06T03:10:56.681Z,1009.36
2023-05-06T03:11:56.678Z,1009.33
2023-05-06T03:12:56.726Z,1009.30
2023-05-06T03:13:56.672Z,1009.31
2023-05-06T03:14:56.622Z,1009.30
2023-05-06T03:15:56.609Z,1009.24
2023-05-06T03:16:56.650Z,1009.21
2023-05-06T03:17:56.668Z,1009.19
2023-05-06T03:18:56.593Z,1009.20
2023-05-06T03:19:56.580Z,1009.15
2023-05-06T03:20:56.646Z,1009.19
2023-05-06T03:21:56.550Z,1009.20
2023-05-06T03:22:56.604Z,1009.20
2023-05-06T03:23:56.519Z,1009.16
2023-05-06T03:24:56.506Z,1009.11
2023-05-06T03:25:56.500Z,1009.11
2023-05-06T03:26:56.538Z,1009.07
2023-05-06T03:27:56.530Z,1009.01
2023-05-06T03:28:56.459Z,1008.93
2023-05-06T03:29:56.473Z,1008.91
2023-05-06T03:30:56.448Z,1008.87
2023-05-06T03:31:56.539Z,1008.89
2023-05-06T03:32:56.495Z,1008.93
2023-05-06T03:33:56.397Z,1008.95
2023-05-06T03:34:56.387Z,1009.00
2023-05-06T03:35:56.400Z,1008.95
2023-05-06T03:36:56.428Z,1008.94
2023-05-06T03:37:56.378Z,1008.85
2023-05-06T03:38:56.351Z,1008.92
2023-05-06T03:39:56.371Z,1008.92
2023-05-06T03:40:56.356Z,1008.95
2023-05-06T03:41:56.364Z,1008.92
2023-05-06T03:42:56.333Z,1008.88
2023-05-06T03:43:56.298Z,1008.84
2023-05-06T03:44:56.265Z,1008.85
2023-05-06T03:45:56.336Z,1008.87
2023-05-06T03:46:56.248Z,1008.86
2023-05-06T03:47:58.335Z,1008.85
2023-05-06T03:48:56.252Z,1008.83
2023-05-06T03:49:56.194Z,1008.80
2023-05-06T03:50:56.265Z,1008.90
2023-05-06T03:51:56.209Z,1008.91
2023-05-06T03:52:56.193Z,1008.89
2023-05-06T03:53:56.161Z,1008.88
2023-05-06T03:54:56.217Z,1008.85
2023-05-06T03:55:56.189Z,1008.79
2023-05-06T03:56:56.125Z,1008.78
2023-05-06T03:57:56.112Z,1008.80
2023-05-06T03:58:56.136Z,1008.77
2023-05-06T03:59:56.160Z,1008.78
2023-05-06T04:00:56.109Z,1008.84
2023-05-06T04:01:56.131Z,1008.85
2023-05-06T04:02:56.133Z,1008.93
2023-05-06T04:03:56.080Z,1008.99
2023-05-06T04:04:56.094Z,1008.97
2023-05-06T04:05:56.052Z,1009.03
2023-05-06T04:06:56.033Z,1008.95
2023-05-06T04:07:56.003Z,1008.91
2023-05-06T04:08:56.025Z,1008.88
2023-05-06T04:09:56.030Z,1008.84
2023-05-06T04:10:56.009Z,1008.84
2023-05-06T04:11:55.976Z,1008.87
2023-05-06T04:12:56.013Z,1008.82
2023-05-06T04:13:55.945Z,1008.80
2023-05-06T04:14:55.918Z,1008.84
2023-05-06T04:15:55.978Z,1008.86
2023-05-06T04:16:55.919Z,1008.86
2023-05-06T04:17:55.955Z,1008.87
2023-05-06T04:18:55.946Z,1008.82
2023-05-06T04:19:55.858Z,1008.84
2023-05-06T04:20:55.867Z,1008.88
2023-05-06T04:21:55.848Z,1008.93
2023-05-06T04:22:55.870Z,1008.92
2023-05-06T04:23:55.871Z,1008.92
2023-05-06T04:24:55.821Z,1008.94
2023-05-06T04:25:55.801Z,1008.91
2023-05-06T04:26:55.800Z,1008.87
2023-05-06T04:27:55.813Z,1008.90
2023-05-06T04:28:55.759Z,1008.89
2023-05-06T04:29:55.750Z,1008.90
2023-05-06T04:30:55.747Z,1008.89
2023-05-06T04:31:55.792Z,1008.89
2023-05-06T04:32:55.773Z,1008.90
2023-05-06T04:33:55.703Z,1008.93
2023-05-06T04:34:55.707Z,1008.90
2023-05-06T04:35:55.683Z,1008.87
2023-05-06T04:36:55.711Z,1008.89
2023-05-06T04:37:55.744Z,1008.89
2023-05-06T04:38:55.671Z,1008.87
2023-05-06T04:39:55.643Z,1008.86
2023-05-06T04:40:55.623Z,1008.88
2023-05-06T04:41:55.651Z,1008.88
2023-05-06T04:42:55.581Z,1008.87
2023-05-06T04:43:55.569Z,1008.87
2023-05-06T04:44:55.559Z,1008.88
2023-05-06T04:45:55.724Z,1008.87
2023-05-06T04:46:55.619Z,1008.94
2023-05-06T04:47:55.581Z,1008.92
2023-05-06T04:48:55.553Z,1008.93
2023-05-06T04:49:55.519Z,1008.96
2023-05-06T04:50:55.536Z,1008.96
2023-05-06T04:51:55.482Z,1008.97
2023-05-06T04:52:55.493Z,1008.96
2023-05-06T04:53:55.469Z,1008.98
2023-05-06T04:54:55.480Z,1008.99
2023-05-06T04:55:55.493Z,1009.00
2023-05-06T04:56:55.482Z,1008.97
2023-05-06T04:57:55.452Z,1008.96
2023-05-06T04:58:55.428Z,1008.95
2023-05-06T04:59:55.444Z,1008.98
2023-05-06T05:00:55.500Z,1008.96
2023-05-06T05:01:55.397Z,1008.96
2023-05-06T05:02:55.470Z,1008.94
2023-05-06T05:03:55.340Z,1008.98
2023-05-06T05:04:55.389Z,1008.97
2023-05-06T05:05:55.323Z,1009.02
2023-05-06T05:06:55.346Z,1008.90
2023-05-06T05:07:55.299Z,1008.90
2023-05-06T05:08:55.573Z,1008.99
2023-05-06T05:09:55.317Z,1008.89
2023-05-06T05:10:55.268Z,1008.92
2023-05-06T05:11:55.245Z,1008.92
2023-05-06T05:12:55.287Z,1008.95
2023-05-06T05:13:57.104Z,1008.92
2023-05-06T05:14:55.273Z,1008.93
2023-05-06T05:15:55.202Z,1008.98
2023-05-06T05:16:55.236Z,1008.98
2023-05-06T05:17:55.222Z,1008.98
2023-05-06T05:18:55.196Z,1009.01
2023-05-06T05:19:55.195Z,1009.08
2023-05-06T05:20:55.158Z,1009.03
2023-05-06T05:21:55.147Z,1009.02
2023-05-06T05:22:55.135Z,1009.09
2023-05-06T05:23:55.138Z,1009.08
2023-05-06T05:24:55.102Z,1009.11
2023-05-06T05:25:55.109Z,1009.09
2023-05-06T05:26:55.079Z,1009.09
2023-05-06T05:27:55.146Z,1009.00
2023-05-06T05:28:55.101Z,1009.00
2023-05-06T05:29:55.041Z,1008.98
2023-05-06T05:30:55.057Z,1008.97
2023-05-06T05:31:55.007Z,1009.03
2023-05-06T05:32:55.062Z,1009.00
2023-05-06T05:33:55.084Z,1008.97
2023-05-06T05:34:54.989Z,1008.87
2023-05-06T05:35:54.975Z,1008.87
2023-05-06T05:36:54.952Z,1008.92
2023-05-06T05:37:55.000Z,1009.03
2023-05-06T05:38:54.989Z,1009.10
2023-05-06T05:39:54.917Z,1009.13
2023-05-06T05:40:54.920Z,1009.15
2023-05-06T05:41:54.933Z,1009.18
2023-05-06T05:42:54.965Z,1009.29
2023-05-06T05:43:54.858Z,1009.33
2023-05-06T05:44:54.848Z,1009.38
2023-05-06T05:45:54.876Z,1009.47
2023-05-06T05:46:54.827Z,1009.49
2023-05-06T05:47:54.889Z,1009.51
2023-05-06T05:48:54.814Z,1009.57
2023-05-06T05:49:54.797Z,1009.63
2023-05-06T05:50:54.805Z,1009.07
2023-05-06T05:51:54.811Z,1009.07
2023-05-06T05:52:54.814Z,1009.10
2023-05-06T05:53:54.781Z,1009.06
2023-05-06T05:54:54.743Z,1009.08
2023-05-06T05:55:54.744Z,1009.03
2023-05-06T05:56:54.764Z,1009.08
2023-05-06T05:57:54.705Z,1009.09
2023-05-06T05:58:54.703Z,1009.08
2023-05-06T05:59:54.700Z,1009.04
2023-05-06T06:00:54.685Z,1009.05
2023-05-06T06:01:54.710Z,1009.05
2023-05-06T06:02:54.733Z,1009.08
2023-05-06T06:03:54.977Z,1009.04
2023-05-06T06:04:54.676Z,1009.04
2023-05-06T06:05:54.603Z,1009.04
2023-05-06T06:06:54.646Z,1009.02
2023-05-06T06:07:54.604Z,1009.03
2023-05-06T06:08:54.593Z,1009.03
2023-05-06T06:09:54.569Z,1008.96
2023-05-06T06:10:54.596Z,1008.93
2023-05-06T06:11:54.589Z,1008.95
2023-05-06T06:12:54.547Z,1008.96
2023-05-06T06:13:54.529Z,1008.98
2023-05-06T06:14:54.515Z,1008.98
2023-05-06T06:15:54.612Z,1008.98
2023-05-06T06:16:54.490Z,1009.04
2023-05-06T06:17:54.616Z,1008.99
2023-05-06T06:18:56.814Z,1009.05
2023-05-06T06:19:54.449Z,1009.07
2023-05-06T06:20:54.478Z,1009.03
2023-05-06T06:21:54.414Z,1009.05
2023-05-06T06:22:54.430Z,1009.06
2023-05-06T06:23:54.397Z,1009.04
2023-05-06T06:24:54.424Z,1009.06
2023-05-06T06:25:54.418Z,1009.03
2023-05-06T06:26:54.377Z,1009.09
2023-05-06T06:27:54.343Z,1009.10
2023-05-06T06:28:54.385Z,1009.13
2023-05-06T06:29:54.385Z,1009.12
2023-05-06T06:30:54.325Z,1009.13
2023-05-06T06:31:54.367Z,1009.10
2023-05-06T06:32:54.312Z,1009.07
2023-05-06T06:33:54.316Z,1009.06
2023-05-06T06:34:54.305Z,1009.08
2023-05-06T06:35:54.277Z,1009.10
2023-05-06T06:36:54.236Z,1009.14
2023-05-06T06:37:54.251Z,1009.11
2023-05-06T06:38:54.258Z,1009.13
2023-05-06T06:39:54.271Z,1009.14
2023-05-06T06:40:54.204Z,1009.14
2023-05-06T06:41:54.198Z,1009.16
2023-05-06T06:42:54.189Z,1009.16
2023-05-06T06:43:54.216Z,1009.18
2023-05-06T06:44:54.157Z,1009.18
2023-05-06T06:45:54.202Z,1009.17
2023-05-06T06:46:54.132Z,1009.16
2023-05-06T06:47:54.257Z,1009.22
2023-05-06T06:48:54.173Z,1009.20
2023-05-06T06:49:54.103Z,1009.20
2023-05-06T06:50:54.075Z,1009.21
2023-05-06T06:51:54.094Z,1009.21
2023-05-06T06:52:54.078Z,1009.24
2023-05-06T06:53:54.102Z,1009.23
2023-05-06T06:54:54.054Z,1009.24
2023-05-06T06:55:54.059Z,1009.24
2023-05-06T06:56:54.013Z,1009.24
2023-05-06T06:57:54.059Z,1009.21
2023-05-06T06:58:54.037Z,1009.24
2023-05-06T06:59:53.996Z,1009.24
2023-05-06T07:00:54.005Z,1009.25
2023-05-06T07:01:53.949Z,1009.27
2023-05-06T07:02:54.087Z,1009.24
2023-05-06T07:03:54.007Z,1009.23
2023-05-06T07:04:53.934Z,1009.24
2023-05-06T07:05:53.916Z,1009.25
2023-05-06T07:06:53.924Z,1009.31
2023-05-06T07:07:53.945Z,1009.39
2023-05-06T07:08:53.900Z,1009.44
2023-05-06T07:09:53.891Z,1009.39
2023-05-06T07:10:53.885Z,1009.23
2023-05-06T07:11:53.933Z,1009.20
2023-05-06T07:12:53.908Z,1009.09
2023-05-06T07:13:53.843Z,1009.08
2023-05-06T07:14:53.882Z,1008.98
2023-05-06T07:15:53.830Z,1009.02
2023-05-06T07:16:53.838Z,1009.02
2023-05-06T07:17:53.817Z,1009.04
2023-05-06T07:18:53.783Z,1009.06
2023-05-06T07:19:53.789Z,1009.14
2023-05-06T07:20:53.770Z,1009.11
2023-05-06T07:21:53.796Z,1009.10
2023-05-06T07:22:53.764Z,1009.09
2023-05-06T07:23:53.732Z,1009.00
2023-05-06T07:24:53.721Z,1009.01
2023-05-06T07:25:53.738Z,1008.98
2023-05-06T07:26:53.730Z,1009.05
2023-05-06T07:27:53.693Z,1009.11
2023-05-06T07:28:53.661Z,1008.99
2023-05-06T07:29:53.653Z,1008.94
2023-05-06T07:30:53.786Z,1008.93
2023-05-06T07:31:53.642Z,1008.93
2023-05-06T07:32:53.676Z,1008.96
2023-05-06T07:33:53.631Z,1008.99
2023-05-06T07:34:53.606Z,1008.97
2023-05-06T07:35:53.652Z,1008.96
2023-05-06T07:36:53.573Z,1009.11
2023-05-06T07:37:53.562Z,1009.25
2023-05-06T07:38:53.564Z,1009.39
2023-05-06T07:39:53.586Z,1009.36
2023-05-06T07:40:53.563Z,1009.44
2023-05-06T07:41:53.517Z,1009.45
2023-05-06T07:42:53.513Z,1009.38
2023-05-06T07:43:53.480Z,1009.30
2023-05-06T07:44:53.505Z,1009.31
2023-05-06T07:45:53.511Z,1009.36
2023-05-06T07:46:53.509Z,1009.42
2023-05-06T07:47:53.733Z,1009.46
2023-05-06T07:48:53.456Z,1009.53
2023-05-06T07:49:53.478Z,1009.63
2023-05-06T07:50:53.432Z,1009.73
2023-05-06T07:51:53.404Z,1009.81
2023-05-06T07:52:53.392Z,1009.85
2023-05-06T07:53:53.373Z,1009.85
2023-05-06T07:54:53.411Z,1009.95
2023-05-06T07:55:53.373Z,1010.09
2023-05-06T07:56:53.334Z,1009.66
2023-05-06T07:57:53.328Z,1009.66
2023-05-06T07:58:53.326Z,1009.70
2023-05-06T07:59:53.380Z,1009.66
2023-05-06T08:00:53.299Z,1009.73
2023-05-06T08:01:53.270Z,1009.63
2023-05-06T08:02:53.384Z,1009.64
2023-05-06T08:03:53.423Z,1009.62
2023-05-06T08:04:53.331Z,1009.58
2023-05-06T08:05:53.265Z,1009.58
2023-05-06T08:06:53.243Z,1009.61
2023-05-06T08:07:53.219Z,1009.55
2023-05-06T08:08:53.249Z,1009.59
2023-05-06T08:09:53.185Z,1009.56
2023-05-06T08:10:53.166Z,1009.56
2023-05-06T08:11:53.182Z,1009.58
2023-05-06T08:12:53.186Z,1009.59
2023-05-06T08:13:53.177Z,1009.60
2023-05-06T08:14:53.129Z,1009.59
2023-05-06T08:15:53.246Z,1009.62
2023-05-06T08:16:53.126Z,1009.68
2023-05-06T08:17:53.176Z,1009.70
2023-05-06T08:18:53.131Z,1009.68
2023-05-06T08:19:53.089Z,1009.69
2023-05-06T08:20:53.096Z,1009.67
2023-05-06T08:21:53.092Z,1009.67
2023-05-06T08:22:53.080Z,1009.73
2023-05-06T08:23:53.058Z,1009.76
2023-05-06T08:24:53.032Z,1009.69
2023-05-06T08:25:53.033Z,1009.71
2023-05-06T08:26:53.003Z,1009.73
2023-05-06T08:27:53.038Z,1009.70
2023-05-06T08:28:52.989Z,1009.71
2023-05-06T08:29:52.967Z,1009.69
2023-05-06T08:30:52.977Z,1009.72
2023-05-06T08:31:53.021Z,1009.74
2023-05-06T08:32:52.984Z,1009.72
2023-05-06T08:33:54.655Z,1009.70
2023-05-06T08:34:52.902Z,1009.76
2023-05-06T08:35:52.917Z,1009.74
2023-05-06T08:36:52.908Z,1009.72
2023-05-06T08:37:52.882Z,1009.72
2023-05-06T08:38:52.851Z,1009.74
2023-05-06T08:39:52.869Z,1009.73
2023-05-06T08:40:52.869Z,1009.76
2023-05-06T08:41:52.868Z,1009.74
2023-05-06T08:42:52.819Z,1009.78
2023-05-06T08:43:52.803Z,1009.76
2023-05-06T08:44:52.791Z,1009.81
2023-05-06T08:45:52.868Z,1009.82
2023-05-06T08:46:52.808Z,1009.81
2023-05-06T08:47:52.874Z,1009.82
2023-05-06T08:48:52.765Z,1009.87
2023-05-06T08:49:52.744Z,1009.86
2023-05-06T08:50:52.763Z,1009.91
2023-05-06T08:51:52.778Z,1009.93
2023-05-06T08:52:52.690Z,1009.89
2023-05-06T08:53:52.701Z,1009.94
2023-05-06T08:54:52.682Z,1009.96
2023-05-06T08:55:52.707Z,1009.97
2023-05-06T08:56:52.676Z,1009.92
2023-05-06T08:57:52.650Z,1009.99
2023-05-06T08:58:52.642Z,1009.99
2023-05-06T08:59:52.613Z,1009.99
2023-05-06T09:00:52.687Z,1010.00
2023-05-06T09:01:52.646Z,1010.02
2023-05-06T09:02:52.805Z,1010.05
2023-05-06T09:03:52.640Z,1010.02
2023-05-06T09:04:52.634Z,1010.04
2023-05-06T09:05:52.712Z,1010.02
2023-05-06T09:06:52.566Z,1010.09
2023-05-06T09:07:52.539Z,1010.03
2023-05-06T09:08:52.531Z,1010.07
2023-05-06T09:09:52.569Z,1010.05
2023-05-06T09:10:52.499Z,1010.02
2023-05-06T09:11:52.477Z,1010.10
2023-05-06T09:12:52.497Z,1010.11
2023-05-06T09:13:52.447Z,1010.11
2023-05-06T09:14:52.487Z,1010.12
2023-05-06T09:15:52.452Z,1010.11
2023-05-06T09:16:52.484Z,1010.09
2023-05-06T09:17:52.457Z,1010.11
2023-05-06T09:18:52.443Z,1010.10
2023-05-06T09:19:52.444Z,1010.12
2023-05-06T09:20:52.393Z,1010.18
2023-05-06T09:21:52.408Z,1010.21
2023-05-06T09:22:52.339Z,1010.17
2023-05-06T09:23:52.508Z,1010.15
2023-05-06T09:24:52.349Z,1010.15
2023-05-06T09:25:52.331Z,1010.20
2023-05-06T09:26:52.316Z,1010.18
2023-05-06T09:27:52.302Z,1010.22
2023-05-06T09:28:52.335Z,1010.28
2023-05-06T09:29:52.291Z,1010.23
2023-05-06T09:30:52.332Z,1010.28
2023-05-06T09:31:52.253Z,1010.30
2023-05-06T09:32:52.299Z,1010.34
2023-05-06T09:33:52.280Z,1010.35
2023-05-06T09:34:52.260Z,1010.35
2023-05-06T09:35:52.241Z,1010.35
2023-05-06T09:36:52.210Z,1010.35
2023-05-06T09:37:52.237Z,1010.38
2023-05-06T09:38:52.188Z,1010.40
2023-05-06T09:39:52.163Z,1010.39
2023-05-06T09:40:52.160Z,1010.36
2023-05-06T09:41:52.138Z,1010.36
2023-05-06T09:42:52.158Z,1010.40
2023-05-06T09:43:52.135Z,1010.40
2023-05-06T09:44:52.102Z,1010.43
2023-05-06T09:45:52.112Z,1010.46
2023-05-06T09:46:52.092Z,1010.42
2023-05-06T09:47:52.137Z,1010.46
2023-05-06T09:48:52.076Z,1010.51
2023-05-06T09:49:52.061Z,1010.58
2023-05-06T09:50:52.066Z,1010.56
2023-05-06T09:51:52.034Z,1010.56
2023-05-06T09:52:52.051Z,1010.54
2023-05-06T09:53:52.016Z,1010.53
2023-05-06T09:54:52.006Z,1010.55
2023-05-06T09:55:52.001Z,1010.55
2023-05-06T09:56:52.022Z,1010.58
2023-05-06T09:57:51.993Z,1010.55
2023-05-06T09:58:51.998Z,1010.60
2023-05-06T09:59:51.954Z,1010.57
2023-05-06T10:00:51.933Z,1010.55
2023-05-06T10:01:51.985Z,1010.54
2023-05-06T10:02:52.026Z,1010.55
2023-05-06T10:03:52.155Z,1010.58
2023-05-06T10:04:52.158Z,1010.55
2023-05-06T10:05:51.865Z,1010.59
2023-05-06T10:06:51.894Z,1010.56
2023-05-06T10:07:51.846Z,1010.53
2023-05-06T10:08:51.827Z,1010.62
2023-05-06T10:09:51.818Z,1010.62
2023-05-06T10:10:51.808Z,1010.60
2023-05-06T10:11:51.840Z,1010.58
2023-05-06T10:12:51.821Z,1010.61
2023-05-06T10:13:51.781Z,1010.59
2023-05-06T10:14:51.763Z,1010.59
2023-05-06T10:15:51.805Z,1010.61
2023-05-06T10:16:51.785Z,1010.63
2023-05-06T10:17:51.789Z,1010.61
2023-05-06T10:18:51.702Z,1010.63
2023-05-06T10:19:51.725Z,1010.66
2023-05-06T10:20:51.729Z,1010.69
2023-05-06T10:21:51.703Z,1010.60
2023-05-06T10:22:51.672Z,1010.61
2023-05-06T10:23:51.663Z,1010.61
2023-05-06T10:24:51.708Z,1010.61
2023-05-06T10:25:51.667Z,1010.61
2023-05-06T10:26:51.641Z,1010.60
2023-05-06T10:27:51.622Z,1010.62
2023-05-06T10:28:51.606Z,1010.60
2023-05-06T10:29:51.639Z,1010.54
2023-05-06T10:30:51.570Z,1010.52
2023-05-06T10:31:51.582Z,1010.51
2023-05-06T10:32:51.576Z,1010.49
2023-05-06T10:33:51.585Z,1010.51
2023-05-06T10:34:51.563Z,1010.53
2023-05-06T10:35:51.518Z,1010.48
2023-05-06T10:36:51.503Z,1010.48
2023-05-06T10:37:51.481Z,1010.52
2023-05-06T10:38:51.490Z,1010.53
2023-05-06T10:39:51.462Z,1010.51
2023-05-06T10:40:51.452Z,1010.55
2023-05-06T10:41:51.448Z,1010.56
2023-05-06T10:42:51.469Z,1010.54
2023-05-06T10:43:51.452Z,1010.52
2023-05-06T10:44:51.404Z,1010.52
2023-05-06T10:45:51.451Z,1010.53
2023-05-06T10:46:51.375Z,1010.55
2023-05-06T10:47:51.414Z,1010.57
2023-05-06T10:48:51.397Z,1010.61
2023-05-06T10:49:51.331Z,1010.58
2023-05-06T10:50:51.341Z,1010.61
2023-05-06T10:51:51.341Z,1010.62
2023-05-06T10:52:51.343Z,1010.60
2023-05-06T10:53:51.343Z,1010.59
2023-05-06T10:54:51.340Z,1010.56
2023-05-06T10:55:51.273Z,1010.57
2023-05-06T10:56:51.251Z,1010.55
2023-05-06T10:57:51.293Z,1010.63
2023-05-06T10:58:51.230Z,1010.57
2023-05-06T10:59:51.243Z,1010.57
2023-05-06T11:00:51.265Z,1010.58
2023-05-06T11:01:51.184Z,1010.55
2023-05-06T11:02:51.276Z,1010.52
2023-05-06T11:03:51.172Z,1010.55
2023-05-06T11:04:51.185Z,1010.50
2023-05-06T11:05:51.164Z,1010.53
2023-05-06T11:06:51.187Z,1010.53
2023-05-06T11:07:51.168Z,1010.47
2023-05-06T11:08:51.160Z,1010.49
2023-05-06T11:09:51.092Z,1010.52
2023-05-06T11:10:51.127Z,1010.55
2023-05-06T11:11:51.137Z,1010.55
2023-05-06T11:12:51.146Z,1010.58
2023-05-06T11:13:51.074Z,1010.60
2023-05-06T11:14:51.056Z,1010.62
2023-05-06T11:15:51.045Z,1010.59
2023-05-06T11:16:51.208Z,1010.58
2023-05-06T11:17:51.056Z,1010.63
2023-05-06T11:18:51.015Z,1010.67
2023-05-06T11:19:50.996Z,1010.72
2023-05-06T11:20:50.973Z,1010.74
2023-05-06T11:21:51.003Z,1010.79
2023-05-06T11:22:50.953Z,1010.76
2023-05-06T11:23:50.964Z,1010.84
2023-05-06T11:24:50.940Z,1010.79
2023-05-06T11:25:50.970Z,1010.83
2023-05-06T11:26:50.928Z,1010.81
2023-05-06T11:27:51.093Z,1010.85
2023-05-06T11:28:50.924Z,1010.85
2023-05-06T11:29:50.874Z,1010.86
2023-05-06T11:30:50.969Z,1010.87
2023-05-06T11:31:50.871Z,1010.84
2023-05-06T11:32:50.951Z,1010.88
2023-05-06T11:33:50.836Z,1010.90
2023-05-06T11:34:50.822Z,1010.92
2023-05-06T11:35:50.832Z,1010.89
2023-05-06T11:36:50.825Z,1010.90
2023-05-06T11:37:50.860Z,1010.87
2023-05-06T11:38:50.779Z,1010.88
2023-05-06T11:39:50.774Z,1010.87
2023-05-06T11:40:50.828Z,1010.93
2023-05-06T11:41:50.754Z,1010.88
2023-05-06T11:42:50.760Z,1010.90
2023-05-06T11:43:50.735Z,1010.89
2023-05-06T11:44:50.713Z,1010.95
2023-05-06T11:45:50.799Z,1010.99
2023-05-06T11:46:50.856Z,1011.02
2023-05-06T11:47:50.736Z,1011.03
2023-05-06T11:48:50.691Z,1011.03
2023-05-06T11:49:50.693Z,1011.04
2023-05-06T11:50:50.721Z,1011.01
2023-05-06T11:51:50.625Z,1011.05
2023-05-06T11:52:50.632Z,1011.08
2023-05-06T11:53:50.612Z,1011.06
2023-05-06T11:54:50.631Z,1011.06
2023-05-06T11:55:50.646Z,1011.09
2023-05-06T11:56:50.588Z,1011.15
2023-05-06T11:57:50.578Z,1011.16
2023-05-06T11:58:50.538Z,1011.21
2023-05-06T11:59:50.571Z,1011.21
2023-05-06T12:00:51.386Z,1011.24
2023-05-06T12:01:50.508Z,1011.24
2023-05-06T12:02:50.590Z,1011.25
2023-05-06T12:03:50.652Z,1011.33
2023-05-06T12:04:50.592Z,1011.33
2023-05-06T12:05:50.449Z,1011.37